Time;durP1;ratioP1;P1;durP2;ratioP2;P2;SDS_P1;SDS_P2;PMS_P1;PMS_P2;Temp;Humidity;BMP_temperature;BMP_pressure;BME280_temperature;BME280_humidity;BME280_pressure;Samples;Min_cycle;Max_cycle;Signal;HPM_P1;HPM_P2
2021/04/16 00:01:30;;;;;;;6.88;3.03;;;2.50;76.40;;;;;;5034597;28;20045;-82
2021/04/16 00:03:55;;;;;;;12.18;3.35;;;2.50;76.90;;;;;;5034502;28;21323;-77
2021/04/16 00:06:21;;;;;;;8.07;3.47;;;2.50;76.60;;;;;;5033051;28;20105;-78
2021/04/16 00:08:46;;;;;;;5.47;2.90;;;2.50;76.90;;;;;;5034993;28;20030;-78
2021/04/16 00:11:22;;;;;;;10.95;3.25;;;2.50;76.90;;;;;;5038444;28;20116;-79
2021/04/16 00:13:48;;;;;;;7.75;3.30;;;2.50;76.20;;;;;;5047294;28;20041;-78
2021/04/16 00:16:18;;;;;;;7.35;3.30;;;2.50;75.70;;;;;;5031720;28;20062;-78
2021/04/16 00:18:44;;;;;;;6.28;3.15;;;2.50;76.40;;;;;;5037986;28;20034;-78
2021/04/16 00:21:10;;;;;;;7.53;3.13;;;2.50;76.10;;;;;;5032965;28;20040;-77
2021/04/16 00:23:36;;;;;;;8.85;2.88;;;2.50;75.70;;;;;;5055536;28;20052;-81
2021/04/16 00:26:02;;;;;;;6.07;3.15;;;2.50;76.20;;;;;;5036449;28;20060;-81
2021/04/16 00:28:29;;;;;;;10.20;3.40;;;2.40;75.70;;;;;;5039170;28;20080;-82
2021/04/16 00:31:02;;;;;;;5.20;3.20;;;2.50;76.70;;;;;;5030159;28;20025;-82
2021/04/16 00:33:28;;;;;;;10.60;3.10;;;2.40;76.20;;;;;;5040825;28;20037;-81
2021/04/16 00:35:55;;;;;;;5.22;2.92;;;2.40;77.00;;;;;;5038241;28;20029;-80
2021/04/16 00:38:22;;;;;;;7.72;3.08;;;2.40;76.20;;;;;;5034466;28;20037;-82
2021/04/16 00:40:52;;;;;;;7.90;3.55;;;2.40;77.00;;;;;;5037990;28;20038;-82
2021/04/16 00:43:21;;;;;;;6.30;3.47;;;2.40;76.70;;;;;;5040644;28;20026;-81
2021/04/16 00:45:47;;;;;;;7.05;3.28;;;2.40;76.70;;;;;;5036709;28;20053;-81
2021/04/16 00:48:26;;;;;;;7.68;3.25;;;2.40;76.70;;;;;;5041938;28;20517;-82
2021/04/16 00:50:55;;;;;;;7.60;2.90;;;2.40;77.00;;;;;;5034383;28;20044;-81
2021/04/16 00:53:21;;;;;;;7.53;3.55;;;2.40;76.90;;;;;;5048723;28;20040;-82
2021/04/16 00:55:48;;;;;;;9.25;3.60;;;2.40;77.00;;;;;;5046169;28;20052;-81
2021/04/16 00:58:15;;;;;;;12.98;3.58;;;2.40;76.80;;;;;;5044826;28;20579;-81
2021/04/16 01:00:42;;;;;;;12.65;3.25;;;2.40;76.40;;;;;;5037196;28;20097;-81
2021/04/16 01:03:08;;;;;;;7.53;3.53;;;2.40;76.50;;;;;;5037673;28;20049;-82
2021/04/16 01:05:34;;;;;;;7.47;3.55;;;2.40;76.30;;;;;;5047423;28;20017;-82
2021/04/16 01:08:00;;;;;;;11.43;3.97;;;2.30;76.60;;;;;;5042916;28;20033;-82
2021/04/16 01:10:25;;;;;;;10.85;3.38;;;2.30;76.70;;;;;;5048103;28;20047;-82
2021/04/16 01:12:52;;;;;;;6.32;3.13;;;2.40;76.90;;;;;;5045402;28;20061;-82
2021/04/16 01:15:28;;;;;;;9.75;3.35;;;2.30;76.70;;;;;;5050062;28;20061;-82
2021/04/16 01:17:56;;;;;;;6.53;3.35;;;2.30;76.40;;;;;;5045932;28;20026;-78
2021/04/16 01:20:30;;;;;;;6.32;2.88;;;2.20;76.70;;;;;;5052686;28;20034;-82
2021/04/16 01:23:38;;;;;;;6.32;3.15;;;2.20;77.00;;;;;;5048797;28;20131;-80
2021/04/16 01:26:05;;;;;;;10.45;3.38;;;2.20;77.10;;;;;;5059151;28;20038;-77
2021/04/16 01:28:31;;;;;;;11.10;3.67;;;2.10;78.20;;;;;;5040412;28;20060;-81
2021/04/16 01:30:56;;;;;;;9.70;3.60;;;2.20;77.90;;;;;;5035720;28;20044;-81
2021/04/16 01:33:23;;;;;;;8.35;3.38;;;2.20;77.80;;;;;;5052889;28;20381;-81
2021/04/16 01:35:49;;;;;;;8.10;3.33;;;2.20;77.60;;;;;;5031976;28;20057;-81
2021/04/16 01:38:15;;;;;;;8.10;3.47;;;2.20;77.40;;;;;;5042985;28;20060;-79
2021/04/16 01:40:40;;;;;;;7.50;3.63;;;2.20;77.40;;;;;;5044419;28;20062;-80
2021/04/16 01:43:21;;;;;;;8.45;3.38;;;2.20;77.10;;;;;;5033298;28;20037;-80
2021/04/16 01:45:48;;;;;;;6.32;2.63;;;2.20;77.30;;;;;;5032672;28;20098;-80
2021/04/16 01:48:14;;;;;;;5.75;3.28;;;2.10;77.20;;;;;;5035345;28;20045;-81
2021/04/16 01:50:40;;;;;;;9.45;3.13;;;2.10;77.30;;;;;;5030206;28;20572;-80
2021/04/16 01:53:05;;;;;;;11.73;3.65;;;2.00;77.20;;;;;;5039111;28;20480;-81
2021/04/16 01:55:31;;;;;;;7.60;3.30;;;2.00;77.70;;;;;;5039291;28;20045;-79
2021/04/16 01:57:57;;;;;;;10.73;3.22;;;1.90;78.20;;;;;;5034869;28;21397;-79
2021/04/16 02:00:34;;;;;;;9.15;2.90;;;1.80;77.90;;;;;;5032265;28;20056;-80
2021/04/16 02:03:00;;;;;;;5.35;3.00;;;1.80;79.00;;;;;;5035271;28;20094;-80
2021/04/16 02:05:26;;;;;;;10.23;3.22;;;1.80;78.90;;;;;;5027869;28;20049;-79
2021/04/16 02:07:55;;;;;;;13.93;3.67;;;1.70;79.70;;;;;;5029342;28;20071;-80
2021/04/16 02:10:21;;;;;;;6.07;3.03;;;1.70;79.80;;;;;;5034195;28;20049;-79
2021/04/16 02:12:47;;;;;;;11.85;4.05;;;1.70;80.10;;;;;;5027928;28;20793;-79
2021/04/16 02:15:13;;;;;;;7.63;3.80;;;1.60;81.10;;;;;;5023982;28;20050;-79
2021/04/16 02:17:38;;;;;;;6.22;3.17;;;1.50;81.60;;;;;;5024897;28;20037;-80
2021/04/16 02:20:22;;;;;;;7.40;3.70;;;1.50;81.40;;;;;;5022712;28;20064;-80
2021/04/16 02:22:48;;;;;;;11.60;4.47;;;1.50;82.10;;;;;;5027059;28;22342;-80
2021/04/16 02:25:14;;;;;;;6.57;3.80;;;1.50;83.50;;;;;;5031743;28;20061;-80
2021/04/16 02:27:40;;;;;;;9.75;3.92;;;1.50;83.20;;;;;;5023395;28;20332;-80
2021/04/16 02:30:09;;;;;;;10.27;3.60;;;1.50;83.80;;;;;;5031352;28;20512;-80
2021/04/16 02:32:35;;;;;;;8.88;3.33;;;1.50;83.90;;;;;;5023658;28;20048;-80
2021/04/16 02:35:01;;;;;;;5.05;3.15;;;1.40;84.40;;;;;;5023061;28;20068;-79
2021/04/16 02:37:26;;;;;;;10.07;3.17;;;1.40;85.60;;;;;;5029052;28;20045;-79
2021/04/16 02:39:52;;;;;;;9.57;4.00;;;1.50;86.80;;;;;;5026268;28;20049;-79
2021/04/16 02:42:18;;;;;;;9.57;3.38;;;1.50;86.70;;;;;;5029726;28;20337;-80
2021/04/16 02:44:44;;;;;;;6.80;3.03;;;1.60;86.60;;;;;;5034982;28;20972;-79
2021/04/16 02:47:11;;;;;;;8.18;3.60;;;1.60;86.00;;;;;;5041951;28;20072;-78
2021/04/16 02:49:36;;;;;;;6.95;3.33;;;1.60;86.00;;;;;;5032843;28;20041;-77
2021/04/16 02:52:03;;;;;;;11.45;4.07;;;1.60;85.70;;;;;;5029583;28;20033;-77
2021/04/16 02:54:29;;;;;;;6.97;3.55;;;1.60;85.80;;;;;;5031772;28;20077;-77
2021/04/16 02:56:55;;;;;;;7.53;3.50;;;1.50;85.50;;;;;;5028110;28;20044;-77
2021/04/16 02:59:21;;;;;;;10.27;4.07;;;1.60;86.00;;;;;;5029011;28;20037;-77
2021/04/16 03:01:47;;;;;;;7.60;3.83;;;1.50;86.00;;;;;;5027388;28;20048;-77
2021/04/16 03:04:13;;;;;;;11.65;3.78;;;1.50;86.00;;;;;;5029720;28;20038;-76
2021/04/16 03:06:38;;;;;;;9.38;3.65;;;1.40;86.00;;;;;;5024340;28;20038;-77
2021/04/16 03:09:04;;;;;;;9.20;3.50;;;1.40;86.10;;;;;;5028934;28;20048;-76
2021/04/16 03:11:31;;;;;;;7.05;3.80;;;1.40;86.20;;;;;;5033735;28;20045;-77
2021/04/16 03:13:57;;;;;;;7.53;3.53;;;1.40;86.30;;;;;;5029551;28;20042;-77
2021/04/16 03:16:26;;;;;;;6.30;3.67;;;1.40;86.60;;;;;;5033236;28;20056;-78
2021/04/16 03:18:52;;;;;;;9.93;3.50;;;1.50;86.50;;;;;;5042454;28;20037;-76
2021/04/16 03:21:18;;;;;;;9.15;3.95;;;1.40;86.10;;;;;;5033503;28;20042;-77
2021/04/16 03:23:43;;;;;;;9.40;4.00;;;1.30;86.20;;;;;;5031091;28;20582;-76
2021/04/16 03:26:09;;;;;;;8.73;4.07;;;1.30;86.40;;;;;;5045337;28;20088;-79
2021/04/16 03:28:34;;;;;;;6.30;3.40;;;1.30;87.80;;;;;;5037123;28;20049;-80
2021/04/16 03:31:00;;;;;;;8.55;3.55;;;1.30;87.50;;;;;;5030549;28;20304;-80
2021/04/16 03:33:26;;;;;;;8.25;3.33;;;1.30;87.50;;;;;;5034499;28;20042;-80
2021/04/16 03:35:52;;;;;;;6.47;3.50;;;1.40;87.30;;;;;;5049487;28;20055;-80
2021/04/16 03:38:18;;;;;;;8.95;4.00;;;1.40;87.70;;;;;;5033913;28;20050;-78
2021/04/16 03:40:44;;;;;;;6.97;3.83;;;1.40;87.10;;;;;;5028639;28;21492;-80
2021/04/16 03:43:09;;;;;;;11.68;4.20;;;1.40;87.10;;;;;;5029412;28;20925;-82
2021/04/16 03:45:35;;;;;;;11.15;3.83;;;1.40;87.10;;;;;;5029160;28;20129;-80
2021/04/16 03:48:00;;;;;;;6.55;3.53;;;1.40;87.10;;;;;;5030350;28;20049;-80
2021/04/16 03:50:30;;;;;;;7.25;3.13;;;1.40;87.30;;;;;;5029263;28;20124;-79
2021/04/16 03:52:56;;;;;;;12.20;3.75;;;1.40;87.50;;;;;;5022533;28;20043;-79
2021/04/16 03:55:25;;;;;;;7.30;3.70;;;1.40;88.20;;;;;;5029429;28;20247;-79
2021/04/16 03:57:51;;;;;;;5.85;3.58;;;1.30;88.00;;;;;;5022064;28;20033;-79
2021/04/16 04:00:26;;;;;;;10.90;4.50;;;1.20;88.20;;;;;;5027784;28;20109;-82
2021/04/16 04:02:51;;;;;;;10.15;4.25;;;1.20;88.70;;;;;;5029071;28;20095;-80
2021/04/16 04:05:18;;;;;;;11.70;4.53;;;1.20;89.20;;;;;;5034313;28;20037;-80
2021/04/16 04:07:44;;;;;;;11.93;4.53;;;1.10;89.60;;;;;;5033788;28;20042;-79
2021/04/16 04:10:11;;;;;;;10.45;4.38;;;1.10;89.80;;;;;;5044391;28;20037;-80
2021/04/16 04:12:36;;;;;;;7.32;4.35;;;1.00;90.10;;;;;;5027712;28;20634;-79
2021/04/16 04:15:04;;;;;;;9.85;5.43;;;1.00;90.80;;;;;;5028311;28;20048;-79
2021/04/16 04:17:35;;;;;;;11.85;4.47;;;1.00;91.00;;;;;;5028979;28;20033;-80
2021/04/16 04:20:03;;;;;;;16.42;5.03;;;1.00;92.40;;;;;;5017068;28;20037;-80
2021/04/16 04:22:28;;;;;;;11.50;4.25;;;0.90;92.20;;;;;;5027029;28;20160;-80
2021/04/16 04:24:54;;;;;;;10.98;4.50;;;0.90;92.20;;;;;;5026595;28;20358;-80
2021/04/16 04:27:20;;;;;;;8.20;4.43;;;0.90;92.70;;;;;;5023741;28;20040;-80
2021/04/16 04:29:46;;;;;;;9.95;5.68;;;0.90;92.90;;;;;;5039216;28;20064;-79
2021/04/16 04:32:12;;;;;;;17.05;7.18;;;0.90;93.00;;;;;;5031713;28;20316;-80
2021/04/16 04:34:39;;;;;;;11.63;6.32;;;0.80;92.90;;;;;;5029105;28;20038;-80
2021/04/16 04:37:06;;;;;;;10.55;5.00;;;0.80;94.10;;;;;;5033088;28;20036;-80
2021/04/16 04:39:34;;;;;;;14.32;5.53;;;0.80;95.10;;;;;;5040119;28;20028;-80
2021/04/16 04:42:02;;;;;;;16.35;5.40;;;0.80;96.30;;;;;;5025428;28;20040;-80
2021/04/16 04:44:28;;;;;;;13.60;4.15;;;0.80;96.20;;;;;;5031536;28;20106;-79
2021/04/16 04:46:53;;;;;;;15.35;5.35;;;0.80;96.10;;;;;;5036102;28;20037;-78
2021/04/16 04:49:20;;;;;;;10.88;4.95;;;0.80;96.10;;;;;;5029599;28;20088;-77
2021/04/16 04:51:47;;;;;;;11.75;4.53;;;0.80;96.10;;;;;;5039201;28;20037;-78
2021/04/16 04:54:12;;;;;;;8.93;4.20;;;0.80;96.10;;;;;;5018798;28;20486;-79
2021/04/16 04:56:38;;;;;;;10.50;4.70;;;0.90;96.20;;;;;;5026788;28;20034;-79
2021/04/16 04:59:05;;;;;;;14.23;4.90;;;0.90;96.10;;;;;;5027070;28;20029;-79
2021/04/16 05:01:32;;;;;;;9.93;4.68;;;1.00;96.00;;;;;;5021963;28;20036;-79
2021/04/16 05:03:57;;;;;;;12.65;4.38;;;1.00;95.70;;;;;;5024211;28;20468;-78
2021/04/16 05:06:23;;;;;;;14.23;4.88;;;1.00;95.80;;;;;;5026492;28;20048;-79
2021/04/16 05:08:48;;;;;;;18.02;5.28;;;1.10;95.80;;;;;;5028591;28;20086;-79
2021/04/16 05:11:14;;;;;;;10.70;4.70;;;1.10;95.70;;;;;;5027403;28;20041;-80
2021/04/16 05:13:40;;;;;;;6.72;4.10;;;1.10;95.70;;;;;;5033750;28;20033;-80
2021/04/16 05:16:08;;;;;;;12.05;4.53;;;1.10;95.60;;;;;;5023795;28;20036;-80
2021/04/16 05:18:35;;;;;;;9.98;4.35;;;1.20;95.60;;;;;;5041121;28;20036;-80
2021/04/16 05:21:01;;;;;;;9.30;4.60;;;1.20;95.30;;;;;;5030678;28;20415;-80
2021/04/16 05:23:26;;;;;;;8.80;4.43;;;1.30;95.10;;;;;;5031938;28;20122;-80
2021/04/16 05:25:52;;;;;;;11.88;4.70;;;1.40;95.40;;;;;;5030474;28;20080;-80
2021/04/16 05:28:17;;;;;;;12.63;5.32;;;1.40;95.40;;;;;;5029439;28;20047;-80
2021/04/16 05:30:43;;;;;;;9.40;4.55;;;1.50;95.30;;;;;;5025031;28;20041;-80
2021/04/16 05:33:09;;;;;;;8.70;3.83;;;1.60;95.10;;;;;;5028913;28;20041;-80
2021/04/16 05:35:34;;;;;;;9.20;4.63;;;1.70;95.00;;;;;;5024115;28;20053;-80
2021/04/16 05:38:00;;;;;;;8.55;4.93;;;1.80;94.90;;;;;;5028804;28;20033;-80
2021/04/16 05:40:27;;;;;;;9.25;4.45;;;1.90;94.60;;;;;;5026946;28;20045;-80
2021/04/16 05:42:54;;;;;;;12.20;4.50;;;2.00;94.20;;;;;;5033648;28;20048;-79
2021/04/16 05:45:20;;;;;;;7.50;4.93;;;2.00;93.90;;;;;;5024694;28;20037;-80
2021/04/16 05:47:46;;;;;;;7.43;4.20;;;2.10;93.50;;;;;;5023839;28;20097;-80
2021/04/16 05:50:13;;;;;;;11.82;4.32;;;2.20;92.60;;;;;;5031833;28;20130;-82
2021/04/16 05:52:38;;;;;;;9.40;4.43;;;2.20;92.20;;;;;;5036887;28;20093;-80
2021/04/16 05:55:05;;;;;;;12.20;4.85;;;2.30;92.00;;;;;;5031485;28;20064;-80
2021/04/16 05:57:30;;;;;;;11.38;4.97;;;2.30;92.00;;;;;;5029355;28;20037;-80
2021/04/16 05:59:56;;;;;;;11.35;4.38;;;2.50;91.90;;;;;;5032551;28;20547;-81
2021/04/16 06:02:23;;;;;;;17.45;4.80;;;2.50;91.50;;;;;;5036472;28;20481;-80
2021/04/16 06:04:48;;;;;;;15.27;4.38;;;2.60;91.20;;;;;;5031965;28;20073;-80
2021/04/16 06:07:14;;;;;;;11.32;4.32;;;2.60;90.70;;;;;;5036676;28;20048;-80
2021/04/16 06:09:39;;;;;;;9.68;4.53;;;2.70;90.80;;;;;;5029106;28;20051;-81
2021/04/16 06:12:05;;;;;;;11.50;5.00;;;2.80;90.70;;;;;;5033195;28;20149;-81
2021/04/16 06:14:31;;;;;;;9.10;4.47;;;2.90;90.40;;;;;;5036972;28;20049;-80
2021/04/16 06:16:56;;;;;;;10.07;4.78;;;2.90;90.10;;;;;;5034513;28;20048;-79
2021/04/16 06:19:23;;;;;;;12.38;4.82;;;3.00;89.80;;;;;;5041435;28;20048;-80
2021/04/16 06:21:48;;;;;;;7.45;4.25;;;3.00;90.20;;;;;;5044272;28;20124;-83
2021/04/16 06:24:14;;;;;;;11.25;5.07;;;3.10;90.20;;;;;;5038856;28;20053;-78
2021/04/16 06:26:39;;;;;;;12.80;4.70;;;3.10;90.60;;;;;;5030313;28;20034;-78
2021/04/16 06:29:06;;;;;;;9.13;4.40;;;3.10;90.70;;;;;;5029821;28;20508;-78
2021/04/16 06:31:32;;;;;;;11.20;4.72;;;3.20;90.80;;;;;;5013806;28;20025;-78
2021/04/16 06:33:58;;;;;;;10.95;5.10;;;3.30;90.90;;;;;;5027882;28;20041;-78
2021/04/16 06:36:24;;;;;;;11.10;4.57;;;3.50;90.50;;;;;;5045993;28;20494;-78
2021/04/16 06:38:49;;;;;;;13.65;4.25;;;3.70;90.20;;;;;;5033717;28;20037;-79
2021/04/16 06:41:29;;;;;;;12.65;4.38;;;3.70;89.10;;;;;;5034015;28;20048;-80
2021/04/16 06:43:59;;;;;;;7.53;4.78;;;3.80;89.50;;;;;;5036838;28;20056;-79
2021/04/16 06:46:35;;;;;;;8.63;4.55;;;4.00;89.20;;;;;;5039174;28;20037;-80
2021/04/16 06:49:05;;;;;;;9.70;4.60;;;3.90;89.00;;;;;;5034206;28;20075;-79
2021/04/16 06:51:35;;;;;;;8.68;5.03;;;4.10;89.60;;;;;;5040621;28;20033;-79
2021/04/16 06:54:05;;;;;;;9.13;5.07;;;4.30;88.50;;;;;;5052872;28;20046;-79
2021/04/16 06:56:37;;;;;;;10.20;4.93;;;4.10;88.90;;;;;;5036074;28;20037;-77
2021/04/16 06:59:15;;;;;;;10.80;5.15;;;4.30;87.90;;;;;;5040789;28;20037;-78
2021/04/16 07:01:46;;;;;;;9.07;4.95;;;4.40;87.70;;;;;;5028859;28;20038;-78
2021/04/16 07:04:32;;;;;;;8.18;4.57;;;4.30;85.90;;;;;;5049049;28;20056;-82
2021/04/16 07:07:03;;;;;;;12.52;5.07;;;4.40;85.90;;;;;;5031602;28;20034;-81
2021/04/16 07:09:33;;;;;;;12.68;5.72;;;4.50;85.00;;;;;;5036519;28;20112;-82
2021/04/16 07:12:16;;;;;;;12.43;6.03;;;4.40;84.40;;;;;;5034235;28;20033;-83
2021/04/16 07:14:46;;;;;;;14.10;5.40;;;4.60;85.50;;;;;;5036185;28;20120;-81
2021/04/16 07:17:16;;;;;;;8.27;4.57;;;4.50;84.40;;;;;;5040476;28;20042;-81
2021/04/16 07:19:41;;;;;;;8.38;5.10;;;4.40;85.20;;;;;;5029160;28;20041;-77
2021/04/16 07:22:16;;;;;;;10.20;4.85;;;4.50;85.40;;;;;;5031795;28;20059;-78
2021/04/16 07:24:42;;;;;;;7.85;4.70;;;4.60;85.30;;;;;;5030685;28;20045;-78
2021/04/16 07:27:32;;;;;;;8.45;4.90;;;4.80;84.70;;;;;;5029386;28;20475;-79
2021/04/16 07:29:59;;;;;;;9.63;5.22;;;5.20;83.50;;;;;;5020814;28;20047;-79
2021/04/16 07:32:31;;;;;;;8.88;5.25;;;4.80;81.60;;;;;;5031105;28;20045;-79
2021/04/16 07:35:18;;;;;;;8.82;5.00;;;5.00;83.10;;;;;;5034233;28;20152;-78
2021/04/16 07:37:48;;;;;;;10.57;4.35;;;5.20;81.60;;;;;;5030653;28;20053;-78
2021/04/16 07:40:24;;;;;;;7.75;5.15;;;5.20;81.20;;;;;;5030486;28;20034;-78
2021/04/16 07:42:50;;;;;;;9.75;5.38;;;5.20;80.80;;;;;;5022511;28;20045;-77
2021/04/16 07:45:24;;;;;;;7.47;4.72;;;5.10;81.20;;;;;;5031150;28;20064;-78
2021/04/16 07:48:13;;;;;;;10.32;4.82;;;5.40;80.60;;;;;;5022104;28;20037;-79
2021/04/16 07:50:44;;;;;;;8.13;4.78;;;5.30;79.40;;;;;;5017459;28;20064;-77
2021/04/16 07:53:35;;;;;;;13.23;5.80;;;5.30;77.60;;;;;;5027655;28;20447;-77
2021/04/16 07:56:09;;;;;;;8.38;5.07;;;5.50;78.10;;;;;;5023883;28;20041;-77
2021/04/16 07:58:35;;;;;;;10.90;5.45;;;5.70;77.60;;;;;;5025180;28;20045;-77
2021/04/16 08:01:26;;;;;;;8.30;5.90;;;6.40;73.60;;;;;;5027262;28;20568;-83
2021/04/16 08:03:59;;;;;;;16.60;4.85;;;6.60;71.60;;;;;;5039218;28;20843;-84
2021/04/16 08:06:44;;;;;;;8.23;4.22;;;6.70;72.00;;;;;;5037250;28;20061;-81
2021/04/16 08:10:11;;;;;;;;;;;;;;;;;;;;;
2021/04/16 08:12:24;;;;;;;7.07;4.28;;;7.10;68.70;;;;;;5011530;28;19921;-83
2021/04/16 08:15:09;;;;;;;11.45;5.57;;;7.50;67.60;;;;;;5040785;28;20062;-85
2021/04/16 08:17:35;;;;;;;7.18;4.75;;;7.40;67.40;;;;;;5038753;28;20033;-84
2021/04/16 08:20:14;;;;;;;12.02;4.65;;;7.00;66.90;;;;;;5039645;28;20128;-85
2021/04/16 08:22:41;;;;;;;8.93;5.15;;;7.20;67.60;;;;;;5039716;28;20124;-84
2021/04/16 08:25:19;;;;;;;11.52;5.35;;;6.90;68.50;;;;;;5040812;28;20037;-83
2021/04/16 08:27:44;;;;;;;8.57;4.82;;;7.00;68.80;;;;;;5031922;28;20044;-84
2021/04/16 08:30:15;;;;;;;7.75;4.68;;;7.10;68.40;;;;;;5034829;28;20057;-83
2021/04/16 08:32:51;;;;;;;8.80;4.75;;;7.20;68.60;;;;;;5036182;28;20071;-84
2021/04/16 08:35:22;;;;;;;10.35;4.75;;;7.20;67.80;;;;;;5028824;28;20585;-83
2021/04/16 08:37:59;;;;;;;15.50;5.00;;;7.30;66.80;;;;;;5051514;28;20030;-80
2021/04/16 08:40:35;;;;;;;9.27;5.78;;;7.00;67.80;;;;;;5032800;28;20072;-78
2021/04/16 08:43:01;;;;;;;8.48;5.65;;;6.80;69.10;;;;;;5029663;28;20118;-79
2021/04/16 08:45:31;;;;;;;7.38;4.88;;;6.60;68.50;;;;;;5031253;28;20029;-79
2021/04/16 08:48:17;;;;;;;10.85;5.45;;;6.70;68.60;;;;;;5034922;28;20543;-79
2021/04/16 08:50:48;;;;;;;9.13;4.57;;;6.60;69.30;;;;;;5029497;28;20048;-79
2021/04/16 08:53:13;;;;;;;7.63;4.55;;;6.70;69.60;;;;;;5028476;28;20037;-78
2021/04/16 08:55:45;;;;;;;7.95;4.35;;;6.70;69.50;;;;;;5035987;28;20631;-79
2021/04/16 08:58:18;;;;;;;7.95;5.15;;;6.80;69.20;;;;;;5029912;28;20045;-79
2021/04/16 09:00:50;;;;;;;6.72;4.20;;;6.80;68.90;;;;;;5031286;28;20086;-79
2021/04/16 09:03:45;;;;;;;12.35;4.07;;;6.90;69.20;;;;;;5031455;28;20075;-79
2021/04/16 09:06:42;;;;;;;8.10;4.70;;;7.20;68.60;;;;;;5016293;28;20113;-80
2021/04/16 09:09:13;;;;;;;10.52;4.65;;;7.70;65.60;;;;;;5026258;28;20113;-80
2021/04/16 09:11:41;;;;;;;7.75;3.83;;;7.50;64.80;;;;;;5021028;28;20152;-79
2021/04/16 09:14:09;;;;;;;7.60;4.13;;;7.50;65.10;;;;;;5033385;28;20057;-80
2021/04/16 09:16:51;;;;;;;8.75;4.53;;;7.20;64.80;;;;;;5027604;28;20061;-80
2021/04/16 09:19:23;;;;;;;6.82;4.35;;;7.60;65.10;;;;;;5035126;28;20501;-80
2021/04/16 09:22:12;;;;;;;8.25;4.13;;;7.60;63.90;;;;;;5035524;28;20064;-80
2021/04/16 09:24:57;;;;;;;13.60;3.80;;;7.50;63.20;;;;;;5022037;28;20039;-78
2021/04/16 09:27:25;;;;;;;7.85;4.32;;;7.70;63.40;;;;;;5027767;28;20037;-78
2021/04/16 09:30:15;;;;;;;14.38;4.00;;;7.50;62.60;;;;;;5015043;28;20041;-77
2021/04/16 09:32:48;;;;;;;7.43;4.50;;;7.50;62.90;;;;;;5009919;28;20883;-76
2021/04/16 09:35:19;;;;;;;10.32;4.47;;;7.50;62.90;;;;;;5022160;28;20054;-76
2021/04/16 09:37:49;;;;;;;9.57;4.55;;;7.50;63.10;;;;;;5023904;28;20487;-75
2021/04/16 09:40:29;;;;;;;7.18;4.55;;;8.00;62.50;;;;;;5018427;28;20148;-75
2021/04/16 09:43:10;;;;;;;5.53;3.47;;;8.30;59.90;;;;;;5025686;28;20056;-76
2021/04/16 09:45:40;;;;;;;6.82;4.05;;;8.10;58.00;;;;;;5024151;28;20033;-76
2021/04/16 09:48:08;;;;;;;6.47;3.60;;;8.30;58.70;;;;;;5020868;28;20041;-75
2021/04/16 09:50:42;;;;;;;10.45;4.22;;;8.70;57.00;;;;;;5012141;28;20124;-74
2021/04/16 09:53:10;;;;;;;7.65;3.83;;;8.80;55.40;;;;;;5020517;28;20127;-75
2021/04/16 09:56:02;;;;;;;7.20;3.40;;;8.90;55.80;;;;;;5025483;28;20048;-75
2021/04/16 09:58:34;;;;;;;7.45;4.50;;;10.00;46.60;;;;;;5020123;28;20037;-75
2021/04/16 10:01:10;;;;;;;9.25;4.00;;;10.40;46.00;;;;;;5025376;28;20739;-75
2021/04/16 10:03:42;;;;;;;5.75;4.10;;;11.10;43.30;;;;;;5016881;28;20104;-75
2021/04/16 10:06:21;;;;;;;8.10;4.32;;;11.90;40.00;;;;;;5022385;28;20042;-77
2021/04/16 10:09:12;;;;;;;5.80;3.75;;;11.60;36.40;;;;;;5027224;28;20033;-77
2021/04/16 10:11:47;;;;;;;5.45;3.22;;;11.80;36.40;;;;;;5024058;28;20092;-76
2021/04/16 10:14:24;;;;;;;5.93;3.83;;;12.00;33.90;;;;;;5018141;28;20042;-78
2021/04/16 10:16:54;;;;;;;5.75;3.45;;;11.30;34.90;;;;;;5025140;28;20034;-77
2021/04/16 10:19:24;;;;;;;5.65;3.45;;;10.60;37.70;;;;;;5020204;28;20034;-78
2021/04/16 10:21:50;;;;;;;8.32;3.95;;;10.30;39.50;;;;;;5033122;28;20053;-78
2021/04/16 10:42:14;;;;;;;6.60;3.97;;;7.90;56.50;;;;;;5016407;28;20115;-77
2021/04/16 12:40:27;;;;;;;7.63;3.80;;;7.20;55.90;;;;;;5036924;28;20052;-81
2021/04/16 12:42:57;;;;;;;6.57;3.42;;;7.20;56.00;;;;;;5036501;28;20265;-79
2021/04/16 12:45:24;;;;;;;5.85;3.45;;;7.40;56.20;;;;;;5032184;28;20041;-79
2021/04/16 12:47:57;;;;;;;4.50;3.05;;;7.40;55.70;;;;;;5035986;28;20042;-78
2021/04/16 12:50:24;;;;;;;7.60;4.05;;;7.30;55.20;;;;;;5036179;28;20052;-79
2021/04/16 12:52:50;;;;;;;7.85;3.70;;;7.40;55.40;;;;;;5052183;28;20033;-79
2021/04/16 12:55:16;;;;;;;13.10;3.22;;;7.50;56.00;;;;;;5037221;28;20071;-79
2021/04/16 12:57:44;;;;;;;5.80;3.65;;;7.70;55.50;;;;;;5030964;28;20041;-80
2021/04/16 13:00:14;;;;;;;7.78;3.78;;;7.70;55.30;;;;;;5033140;28;20083;-79
2021/04/16 13:02:40;;;;;;;9.15;3.90;;;7.90;55.40;;;;;;5029213;28;20033;-79
2021/04/16 13:05:14;;;;;;;5.75;3.47;;;8.20;54.10;;;;;;5035657;28;20049;-79
2021/04/16 13:07:41;;;;;;;5.40;2.83;;;8.20;52.80;;;;;;5041459;28;20408;-80
2021/04/16 13:10:18;;;;;;;5.15;3.50;;;8.50;52.00;;;;;;5033246;28;20040;-79
2021/04/16 13:12:44;;;;;;;5.22;3.33;;;8.60;51.50;;;;;;5026700;28;20034;-78
2021/04/16 13:15:11;;;;;;;8.68;3.95;;;8.70;50.10;;;;;;5035263;28;20037;-78
2021/04/16 13:17:41;;;;;;;6.88;3.50;;;8.60;50.90;;;;;;5026950;28;20033;-78
2021/04/16 13:20:11;;;;;;;4.10;3.13;;;8.50;50.20;;;;;;5025747;28;20503;-78
2021/04/16 13:22:36;;;;;;;9.88;3.67;;;8.50;50.80;;;;;;5038335;28;20041;-78
2021/04/16 13:25:03;;;;;;;7.28;3.70;;;8.40;51.90;;;;;;5022709;28;20037;-79
2021/04/16 13:27:29;;;;;;;7.13;3.45;;;8.60;51.90;;;;;;5025429;28;20033;-78
2021/04/16 13:29:55;;;;;;;5.07;3.40;;;8.50;51.20;;;;;;5035639;28;20037;-79
2021/04/16 13:32:23;;;;;;;9.10;3.80;;;8.50;50.10;;;;;;5028117;28;20077;-79
2021/04/16 13:34:52;;;;;;;8.75;3.13;;;8.50;50.70;;;;;;5025843;28;20048;-79
2021/04/16 13:37:19;;;;;;;5.50;3.10;;;8.40;50.20;;;;;;5034976;28;20033;-79
2021/04/16 13:39:47;;;;;;;5.70;3.42;;;8.60;50.00;;;;;;5034529;28;20053;-78
2021/04/16 13:42:13;;;;;;;4.82;3.08;;;8.50;48.70;;;;;;5039570;28;20129;-79
2021/04/16 13:44:38;;;;;;;4.70;2.65;;;8.40;48.80;;;;;;5036207;28;20045;-79
2021/04/16 13:47:06;;;;;;;8.55;3.13;;;8.40;49.50;;;;;;5029599;28;20041;-80
2021/04/16 13:49:40;;;;;;;6.55;3.05;;;8.40;49.30;;;;;;5037211;28;20813;-78
2021/04/16 13:52:07;;;;;;;6.45;3.28;;;8.50;50.60;;;;;;5032140;28;20037;-78
2021/04/16 13:54:35;;;;;;;9.15;2.90;;;8.50;50.20;;;;;;5039275;28;20502;-78
2021/04/16 13:57:01;;;;;;;4.40;2.80;;;8.40;48.90;;;;;;5044325;28;20041;-78
2021/04/16 13:59:27;;;;;;;4.53;2.67;;;8.40;48.80;;;;;;5024643;28;20095;-78
2021/04/16 14:01:54;;;;;;;5.15;2.42;;;8.60;46.20;;;;;;5029543;28;20042;-78
2021/04/16 14:04:24;;;;;;;8.23;2.45;;;8.50;46.50;;;;;;5037677;28;20041;-79
2021/04/16 14:06:50;;;;;;;4.40;2.20;;;8.40;46.60;;;;;;5032394;28;20079;-79
2021/04/16 14:09:20;;;;;;;5.68;2.35;;;8.60;46.80;;;;;;5035360;28;20052;-79
2021/04/16 14:11:47;;;;;;;3.10;2.15;;;8.70;47.10;;;;;;5029125;28;20076;-79
2021/04/16 14:14:19;;;;;;;4.15;2.35;;;8.60;46.30;;;;;;5032544;28;20105;-79
2021/04/16 14:16:48;;;;;;;2.83;2.10;;;8.70;46.60;;;;;;5035519;28;20095;-79
2021/04/16 14:19:25;;;;;;;2.83;2.10;;;8.40;45.60;;;;;;5028789;28;20409;-78
2021/04/16 14:21:54;;;;;;;4.38;2.22;;;8.40;45.40;;;;;;5021823;28;20500;-79
2021/04/16 14:24:21;;;;;;;8.45;2.05;;;8.40;46.40;;;;;;5028795;28;20041;-79
2021/04/16 14:26:48;;;;;;;6.30;2.08;;;8.30;45.50;;;;;;5037322;28;20037;-78
2021/04/16 14:29:14;;;;;;;4.03;2.00;;;8.30;45.30;;;;;;5025230;28;20407;-79
2021/04/16 14:31:42;;;;;;;3.58;2.22;;;8.20;45.20;;;;;;5047513;28;20037;-78
2021/04/16 14:34:11;;;;;;;3.25;1.95;;;8.10;45.40;;;;;;5039149;28;20044;-80
2021/04/16 14:36:37;;;;;;;5.40;2.05;;;8.10;45.40;;;;;;5043764;28;20053;-80
2021/04/16 14:39:05;;;;;;;8.80;2.85;;;8.10;45.70;;;;;;5058279;28;20034;-80
2021/04/16 14:41:33;;;;;;;3.25;2.30;;;8.20;45.70;;;;;;5043991;28;20121;-80
2021/04/16 14:43:59;;;;;;;2.75;1.70;;;8.30;45.10;;;;;;5041819;28;20113;-79
2021/04/16 14:46:25;;;;;;;3.33;2.28;;;8.30;45.00;;;;;;5045666;28;20033;-80
2021/04/16 14:48:54;;;;;;;3.70;2.10;;;8.40;45.50;;;;;;5034185;28;20060;-79
2021/04/16 14:51:24;;;;;;;2.47;1.73;;;8.50;45.00;;;;;;5034401;28;20090;-79
2021/04/16 14:54:04;;;;;;;3.40;2.05;;;8.60;45.20;;;;;;5041609;28;20041;-78
2021/04/16 14:56:30;;;;;;;3.30;1.83;;;8.60;45.70;;;;;;5042668;28;20037;-79
2021/04/16 14:59:10;;;;;;;4.22;1.77;;;8.50;46.20;;;;;;5040492;28;20065;-79
2021/04/16 15:01:36;;;;;;;2.35;1.58;;;8.60;46.00;;;;;;5044582;28;20064;-79
2021/04/16 15:04:01;;;;;;;2.80;1.70;;;8.40;45.40;;;;;;5043376;28;20044;-79
2021/04/16 15:06:29;;;;;;;7.57;1.98;;;8.40;45.60;;;;;;5040929;28;20535;-79
2021/04/16 15:09:01;;;;;;;2.53;1.70;;;8.40;45.00;;;;;;5037733;28;20068;-79
2021/04/16 15:11:36;;;;;;;2.28;1.50;;;8.40;45.30;;;;;;5034752;28;20533;-79
2021/04/16 15:14:03;;;;;;;4.38;1.98;;;8.40;46.40;;;;;;5033123;28;20042;-79
2021/04/16 15:16:29;;;;;;;2.92;1.95;;;8.30;45.80;;;;;;5038282;28;20553;-80
2021/04/16 15:18:55;;;;;;;4.75;2.15;;;8.40;46.10;;;;;;5035824;28;20116;-79
2021/04/16 15:21:22;;;;;;;3.10;1.88;;;8.30;45.80;;;;;;5043270;28;20091;-78